Time;durP1;ratioP1;P1;durP2;ratioP2;P2;SDS_P1;SDS_P2;PMS_P1;PMS_P2;Temp;Humidity;BMP_temperature;BMP_pressure;BME280_temperature;BME280_humidity;BME280_pressure;Samples;Min_cycle;Max_cycle;Signal;HPM_P1;HPM_P2
2022/09/12 00:01:12;;;;;;;10.05;6.93;;;;;;;17.27;57.89;101681.28;4948589;28;123904;-79
2022/09/12 00:03:39;;;;;;;9.07;6.95;;;;;;;17.25;57.74;101683.22;4950091;28;113363;-79
2022/09/12 00:06:19;;;;;;;9.18;7.20;;;;;;;17.21;57.90;101676.28;4950853;28;114260;-79
2022/09/12 00:08:58;;;;;;;12.13;8.38;;;;;;;17.18;58.16;101676.50;4947996;28;123666;-79
2022/09/12 00:11:26;;;;;;;10.25;7.05;;;;;;;17.15;57.89;101676.66;4949390;28;124771;-78
2022/09/12 00:13:58;;;;;;;9.60;6.97;;;;;;;17.11;57.79;101675.13;4947792;28;114730;-80
2022/09/12 00:16:29;;;;;;;8.63;7.32;;;;;;;17.07;58.08;101674.44;4949462;28;114663;-78
2022/09/12 00:18:56;;;;;;;10.45;8.23;;;;;;;17.04;58.01;101679.09;4948259;28;124030;-79
2022/09/12 00:21:24;;;;;;;11.88;8.13;;;;;;;17.01;58.07;101668.56;4949783;28;122810;-79
2022/09/12 00:23:52;;;;;;;11.45;9.43;;;;;;;16.99;58.09;101667.81;4958847;28;113099;-79
2022/09/12 00:26:20;;;;;;;15.80;11.75;;;;;;;16.98;58.24;101663.41;4949199;28;113701;-79
2022/09/12 00:28:47;;;;;;;13.60;9.68;;;;;;;16.94;58.39;101660.06;4948784;28;123862;-80
2022/09/12 00:31:18;;;;;;;13.18;9.55;;;;;;;16.90;58.46;101662.06;4949314;28;124074;-79
2022/09/12 00:33:46;;;;;;;13.02;9.38;;;;;;;16.87;58.50;101656.88;4947673;28;113978;-80
2022/09/12 00:36:15;;;;;;;12.48;8.63;;;;;;;16.84;58.88;101661.53;4946876;28;113757;-80
2022/09/12 00:38:43;;;;;;;13.02;9.88;;;;;;;16.83;58.65;101660.69;4947444;28;123891;-79
2022/09/12 00:41:26;;;;;;;13.82;9.80;;;;;;;16.83;58.89;101657.16;4948452;28;124037;-79
2022/09/12 00:44:02;;;;;;;10.15;8.27;;;;;;;16.81;58.79;101651.84;4944318;28;113644;-80
2022/09/12 00:46:49;;;;;;;13.00;8.95;;;;;;;16.77;58.58;101644.97;4947471;28;114165;-79
2022/09/12 00:49:32;;;;;;;11.98;8.68;;;;;;;16.74;58.61;101645.13;4943841;28;123445;-79
2022/09/12 00:52:09;;;;;;;12.23;8.70;;;;;;;16.73;58.53;101643.41;4914571;28;123252;-79
2022/09/12 00:54:44;;;;;;;10.65;7.97;;;;;;;16.71;58.72;101646.19;4946846;28;114252;-80
2022/09/12 00:57:15;;;;;;;11.07;8.20;;;;;;;16.71;58.59;101637.31;4959447;28;113931;-80
2022/09/12 00:59:52;;;;;;;11.73;8.82;;;;;;;16.69;58.65;101636.53;4933359;28;122829;-80
2022/09/12 01:02:20;;;;;;;10.57;8.70;;;;;;;16.66;58.65;101636.69;4944254;28;124178;-79
2022/09/12 01:04:47;;;;;;;11.25;9.43;;;;;;;16.61;58.88;101625.41;4948516;28;114586;-78
2022/09/12 01:07:15;;;;;;;12.70;9.55;;;;;;;16.57;58.73;101623.84;4949289;28;114731;-78
2022/09/12 01:09:43;;;;;;;15.65;10.70;;;;;;;16.54;59.13;101622.22;4950472;28;123225;-79
2022/09/12 01:12:14;;;;;;;14.88;10.27;;;;;;;16.51;59.18;101617.91;4951374;28;123366;-79
2022/09/12 01:14:41;;;;;;;11.38;9.13;;;;;;;16.51;59.38;101628.59;4935761;28;112775;-79
2022/09/12 01:17:15;;;;;;;10.93;7.60;;;;;;;16.49;59.59;101619.81;4951721;28;114165;-79
2022/09/12 01:19:48;;;;;;;8.65;7.32;;;;;;;16.48;59.50;101618.09;4948058;28;124326;-80
2022/09/12 01:22:49;;;;;;;10.15;8.05;;;;;;;16.48;59.40;101612.75;4951232;28;123902;-78
2022/09/12 01:25:50;;;;;;;9.82;7.93;;;;;;;16.47;59.45;101605.66;4950551;28;114813;-78
2022/09/12 01:28:39;;;;;;;14.07;10.75;;;;;;;16.46;59.56;101603.97;4935051;28;112783;-78
2022/09/12 01:31:16;;;;;;;12.40;9.82;;;;;;;16.45;59.68;101612.06;4965825;28;123563;-77
2022/09/12 01:33:50;;;;;;;13.18;10.27;;;;;;;16.44;59.55;101605.81;4935093;28;121734;-79
2022/09/12 01:36:33;;;;;;;13.07;10.77;;;;;;;16.42;59.66;101613.06;4951146;28;114490;-79
2022/09/12 01:39:19;;;;;;;14.55;10.15;;;;;;;16.41;59.67;101611.38;4949758;28;113484;-79
2022/09/12 01:42:01;;;;;;;15.00;10.63;;;;;;;16.43;59.58;101616.63;4952161;28;124104;-79
2022/09/12 01:44:53;;;;;;;13.15;10.15;;;;;;;16.41;59.61;101611.38;4951938;28;121895;-78
2022/09/12 01:47:29;;;;;;;14.13;11.32;;;;;;;16.40;59.59;101620.34;4950528;28;113790;-81
2022/09/12 01:50:07;;;;;;;17.35;12.85;;;;;;;16.39;59.86;101607.94;4933437;28;113260;-79
2022/09/12 01:52:41;;;;;;;15.35;11.35;;;;;;;16.39;59.67;101607.94;4949576;28;125003;-81
2022/09/12 01:55:35;;;;;;;18.05;12.70;;;;;;;16.38;59.73;101595.50;4944347;28;123450;-79
2022/09/12 01:58:18;;;;;;;17.00;12.52;;;;;;;16.38;59.97;101600.84;4949233;28;114416;-80
2022/09/12 02:01:05;;;;;;;15.95;12.80;;;;;;;16.38;60.01;101600.84;4950155;28;115605;-81
2022/09/12 02:03:40;;;;;;;17.48;12.52;;;;;;;16.37;60.11;101588.44;4946645;28;124375;-80
2022/09/12 02:06:15;;;;;;;14.23;11.43;;;;;;;16.38;60.03;101590.16;4938440;28;123870;-79
2022/09/12 02:08:51;;;;;;;14.00;11.52;;;;;;;16.37;60.02;101583.09;4949910;28;112836;-82
2022/09/12 02:11:19;;;;;;;21.15;10.90;;;;;;;16.36;59.83;101581.34;4950277;28;112789;-79
2022/09/12 02:13:55;;;;;;;16.15;10.70;;;;;;;16.35;59.95;101580.50;4955466;28;122384;-78
2022/09/12 02:16:30;;;;;;;12.25;9.98;;;;;;;16.33;59.83;101579.72;4957844;28;124182;-77
2022/09/12 02:19:07;;;;;;;12.93;8.70;;;;;;;16.29;59.81;101569.28;4957644;28;113293;-79
2022/09/12 02:21:37;;;;;;;13.68;8.50;;;;;;;16.22;59.72;101562.56;4951268;28;113952;-77
2022/09/12 02:24:09;;;;;;;13.20;8.95;;;;;;;16.15;59.88;101575.44;4955963;28;123374;-79
2022/09/12 02:26:46;;;;;;;14.27;9.48;;;;;;;16.10;59.97;101570.34;4958191;28;122213;-78
2022/09/12 02:29:14;;;;;;;13.77;9.40;;;;;;;16.08;60.00;101566.03;4958016;28;114454;-81
2022/09/12 02:31:46;;;;;;;14.00;10.20;;;;;;;16.06;60.15;101563.44;4955780;28;111778;-79
2022/09/12 02:34:43;;;;;;;12.55;9.10;;;;;;;16.05;60.01;101556.41;4957610;28;123746;-78
2022/09/12 02:37:39;;;;;;;13.45;10.25;;;;;;;16.03;60.01;101558.28;4945711;28;121941;-78
2022/09/12 02:40:07;;;;;;;13.20;10.05;;;;;;;16.03;59.99;101558.28;4960182;28;113943;-79
2022/09/12 02:42:35;;;;;;;13.07;9.60;;;;;;;16.02;60.20;101567.25;4938376;28;113783;-79
2022/09/12 02:45:03;;;;;;;13.05;9.05;;;;;;;16.00;60.19;101566.47;4960408;28;124149;-77
2022/09/12 02:47:39;;;;;;;13.07;9.30;;;;;;;15.98;60.46;101568.38;4953847;28;122025;-80
2022/09/12 02:50:07;;;;;;;14.13;9.07;;;;;;;15.99;60.40;101567.41;4956011;28;112906;-81
2022/09/12 02:52:35;;;;;;;11.35;9.68;;;;;;;15.99;60.37;101567.41;4953726;28;113302;-79
2022/09/12 02:55:04;;;;;;;14.88;10.35;;;;;;;15.99;60.35;101572.75;4955418;28;122194;-77
2022/09/12 02:57:32;;;;;;;14.43;11.38;;;;;;;16.00;60.22;101571.81;4961047;28;124203;-77
2022/09/12 03:00:00;;;;;;;16.17;11.68;;;;;;;15.99;60.34;101575.41;4956789;28;113504;-77
2022/09/12 03:02:45;;;;;;;16.85;12.23;;;;;;;15.99;60.42;101572.75;4956422;28;113453;-77
2022/09/12 03:05:21;;;;;;;18.83;12.73;;;;;;;16.00;60.66;101569.16;4934113;28;123236;-77
2022/09/12 03:08:13;;;;;;;18.17;11.95;;;;;;;16.00;60.76;101561.13;4956565;28;124249;-79
2022/09/12 03:10:48;;;;;;;15.70;10.90;;;;;;;16.00;60.66;101563.78;4942784;28;112934;-79
2022/09/12 03:13:34;;;;;;;16.95;11.30;;;;;;;15.99;60.48;101559.38;4952888;28;113414;-77
2022/09/12 03:16:05;;;;;;;14.65;11.00;;;;;;;16.02;60.54;101559.22;4967211;28;123739;-78
2022/09/12 03:18:59;;;;;;;13.95;11.43;;;;;;;16.01;60.58;101548.63;4956158;28;122103;-77
2022/09/12 03:22:00;;;;;;;16.67;11.52;;;;;;;15.99;60.51;101554.03;4956355;28;114014;-79
2022/09/12 03:24:42;;;;;;;15.15;10.45;;;;;;;15.97;60.46;101553.28;4973434;28;113963;-79
2022/09/12 03:27:15;;;;;;;19.45;11.32;;;;;;;15.95;60.44;101544.47;4958192;28;123176;-77
2022/09/12 03:29:46;;;;;;;17.42;11.80;;;;;;;15.95;60.37;101541.81;4955252;28;125006;-81
2022/09/12 03:32:13;;;;;;;20.77;12.13;;;;;;;15.94;60.53;101542.78;4957819;28;113825;-79
2022/09/12 03:34:40;;;;;;;20.52;12.05;;;;;;;15.93;60.42;101551.72;4963589;28;114778;-79
2022/09/12 03:37:07;;;;;;;19.23;11.63;;;;;;;15.92;60.66;101539.34;4959847;28;124782;-79
2022/09/12 03:39:34;;;;;;;23.52;13.23;;;;;;;15.91;60.75;101538.44;4954461;28;123027;-77
2022/09/12 03:42:01;;;;;;;21.30;13.40;;;;;;;15.92;60.74;101534.00;4957285;28;114526;-79
2022/09/12 03:44:28;;;;;;;22.25;14.57;;;;;;;15.92;60.81;101528.66;4940604;28;113220;-78
2022/09/12 03:46:55;;;;;;;21.10;14.38;;;;;;;15.93;60.75;101535.69;4955336;28;124049;-79
2022/09/12 03:49:22;;;;;;;19.73;13.57;;;;;;;15.93;60.76;101533.88;4954636;28;124100;-77
2022/09/12 03:51:50;;;;;;;23.45;15.35;;;;;;;15.95;60.79;101536.47;4952597;28;113148;-77
2022/09/12 03:54:17;;;;;;;20.60;14.45;;;;;;;15.95;60.64;101528.44;4955775;28;112324;-79
2022/09/12 03:56:44;;;;;;;21.88;14.13;;;;;;;15.95;60.67;101531.13;4955762;28;123845;-79
2022/09/12 03:59:11;;;;;;;22.98;14.05;;;;;;;15.95;60.79;101531.13;4955124;28;123118;-79
2022/09/12 04:01:38;;;;;;;24.15;14.82;;;;;;;15.97;60.81;101531.91;4956842;28;114022;-79
2022/09/12 04:04:05;;;;;;;21.33;14.27;;;;;;;15.97;60.92;101521.22;4955070;28;113230;-79
2022/09/12 04:06:32;;;;;;;22.83;13.57;;;;;;;15.98;60.87;101517.59;4956280;28;122972;-78
2022/09/12 04:08:59;;;;;;;19.15;13.45;;;;;;;16.00;60.94;101515.72;4956662;28;124344;-79
2022/09/12 04:11:26;;;;;;;20.70;13.43;;;;;;;15.99;61.03;101519.31;4958626;28;114244;-79
2022/09/12 04:13:53;;;;;;;21.35;14.48;;;;;;;16.00;60.99;101515.72;4956106;28;113928;-77
2022/09/12 04:16:20;;;;;;;20.35;13.60;;;;;;;16.01;60.96;101512.09;4956881;28;123676;-80
2022/09/12 04:18:47;;;;;;;23.63;14.05;;;;;;;16.02;61.05;101519.16;4957932;28;123152;-78
2022/09/12 04:21:18;;;;;;;19.50;12.48;;;;;;;16.03;61.07;101515.53;4958085;28;116358;-79
2022/09/12 04:23:45;;;;;;;17.40;12.60;;;;;;;16.04;61.02;101511.03;4961382;28;112534;-79
2022/09/12 04:26:13;;;;;;;18.75;12.23;;;;;;;16.04;61.14;101511.91;4936794;28;122929;-79
2022/09/12 04:28:40;;;;;;;21.17;12.80;;;;;;;16.05;61.01;101507.41;4961626;28;124092;-79
2022/09/12 04:31:16;;;;;;;20.02;13.00;;;;;;;16.05;61.07;101508.28;4953639;28;114836;-77
2022/09/12 04:33:44;;;;;;;22.77;13.00;;;;;;;16.06;61.08;101507.31;4952615;28;113959;-81
2022/09/12 04:36:15;;;;;;;21.08;13.45;;;;;;;16.06;61.05;101504.66;4953847;28;124268;-79
2022/09/12 04:38:43;;;;;;;21.02;13.52;;;;;;;16.06;60.70;101514.50;4939987;28;123465;-79
2022/09/12 04:41:22;;;;;;;20.55;13.68;;;;;;;16.06;61.08;101509.16;4954669;28;114398;-79
2022/09/12 04:44:01;;;;;;;22.42;13.20;;;;;;;16.06;61.08;101510.00;4953642;28;113048;-79
2022/09/12 04:46:30;;;;;;;22.92;14.10;;;;;;;16.05;60.99;101508.28;4954388;28;123664;-79
2022/09/12 04:48:57;;;;;;;22.02;14.63;;;;;;;16.06;61.06;101503.81;4955607;28;123592;-79
2022/09/12 04:51:35;;;;;;;26.98;17.17;;;;;;;16.06;61.19;101504.66;4957043;28;115109;-79
2022/09/12 04:54:05;;;;;;;29.63;17.58;;;;;;;16.08;61.48;101508.09;4952859;28;113112;-79
2022/09/12 04:56:36;;;;;;;31.40;17.63;;;;;;;16.08;61.34;101502.75;4956250;28;125836;-80
2022/09/12 04:59:03;;;;;;;25.67;17.10;;;;;;;16.09;61.20;101499.16;4962646;28;124135;-79
2022/09/12 05:01:30;;;;;;;25.83;16.08;;;;;;;16.11;61.31;101499.91;4960060;28;114375;-78
2022/09/12 05:03:58;;;;;;;25.60;16.42;;;;;;;16.11;61.30;101494.56;4972956;28;113958;-79
2022/09/12 05:06:28;;;;;;;22.92;15.63;;;;;;;16.11;61.21;101497.25;4970741;28;124504;-79
2022/09/12 05:08:57;;;;;;;22.35;15.07;;;;;;;16.11;61.30;101491.91;4952115;28;123905;-80
2022/09/12 05:11:27;;;;;;;24.23;14.52;;;;;;;16.09;61.32;101491.13;4959289;28;114574;-77
2022/09/12 05:14:14;;;;;;;21.58;14.30;;;;;;;16.07;61.45;101494.84;4959129;28;114672;-78
2022/09/12 05:16:42;;;;;;;29.58;15.13;;;;;;;16.09;61.36;101506.31;4963184;28;124011;-79
2022/09/12 05:19:14;;;;;;;27.55;15.95;;;;;;;16.09;61.60;101499.16;4969319;28;126270;-79
2022/09/12 05:21:41;;;;;;;25.13;15.20;;;;;;;16.11;61.71;101501.72;4971409;28;115575;-80
2022/09/12 05:24:09;;;;;;;26.65;15.68;;;;;;;16.13;61.77;101506.03;4949309;28;113853;-79
2022/09/12 05:26:36;;;;;;;30.70;17.15;;;;;;;16.15;61.71;101509.47;4952721;28;123877;-78
2022/09/12 05:29:05;;;;;;;29.15;17.27;;;;;;;16.19;61.91;101512.84;4953393;28;123983;-78
2022/09/12 05:31:33;;;;;;;31.25;17.88;;;;;;;16.22;61.84;101514.47;4951215;28;115457;-78
2022/09/12 05:34:03;;;;;;;33.60;19.35;;;;;;;16.27;61.72;101512.38;4954294;28;113107;-80
2022/09/12 05:36:30;;;;;;;35.72;19.75;;;;;;;16.31;61.82;101508.56;4951851;28;123317;-80
2022/09/12 05:39:00;;;;;;;36.80;19.73;;;;;;;16.36;61.96;101506.50;4950244;28;122841;-79
2022/09/12 05:41:30;;;;;;;32.90;19.98;;;;;;;16.38;62.03;101504.59;4936642;28;113233;-78
2022/09/12 05:43:59;;;;;;;32.17;20.02;;;;;;;16.42;62.10;101506.13;4965792;28;114542;-79
2022/09/12 05:46:28;;;;;;;38.63;21.15;;;;;;;16.45;62.14;101500.63;4953398;28;123982;-78
2022/09/12 05:48:57;;;;;;;39.63;21.23;;;;;;;16.49;62.19;101512.84;4948875;28;122254;-79
2022/09/12 05:51:30;;;;;;;37.15;21.30;;;;;;;16.53;62.09;101514.38;4951989;28;114030;-79
2022/09/12 05:53:59;;;;;;;35.45;21.60;;;;;;;16.58;62.37;101510.59;4934222;28;113087;-81
2022/09/12 05:56:29;;;;;;;40.63;22.60;;;;;;;16.63;62.29;101513.84;4958642;28;122580;-80
2022/09/12 05:59:11;;;;;;;37.97;22.38;;;;;;;16.66;62.29;101508.31;4954846;28;122926;-81
2022/09/12 06:01:38;;;;;;;44.40;23.52;;;;;;;16.71;62.21;101511.59;4950666;28;112737;-80
2022/09/12 06:04:06;;;;;;;43.58;24.30;;;;;;;16.76;62.15;101514.81;4966955;28;113668;-80
2022/09/12 06:06:46;;;;;;;44.10;24.25;;;;;;;16.80;62.44;101521.72;4955570;28;124339;-81
2022/09/12 06:09:14;;;;;;;45.83;25.67;;;;;;;16.85;62.18;101519.66;4951763;28;123594;-80
2022/09/12 06:11:43;;;;;;;41.55;24.98;;;;;;;16.88;62.49;101519.47;4953628;28;115855;-80
2022/09/12 06:14:12;;;;;;;44.85;25.88;;;;;;;16.92;62.46;101521.00;4954193;28;114680;-80
2022/09/12 06:16:39;;;;;;;42.15;24.98;;;;;;;16.97;62.56;101517.19;4947843;28;123755;-80
2022/09/12 06:19:20;;;;;;;50.13;26.83;;;;;;;17.02;62.84;101510.59;4956411;28;124086;-80
2022/09/12 06:21:48;;;;;;;51.30;27.98;;;;;;;17.06;62.79;101519.28;4948529;28;114209;-80
2022/09/12 06:24:16;;;;;;;50.38;27.63;;;;;;;17.11;62.82;101514.53;4952384;28;114575;-80
2022/09/12 06:26:44;;;;;;;53.25;28.02;;;;;;;17.17;62.68;101515.97;4965459;28;123831;-80
2022/09/12 06:29:11;;;;;;;51.15;27.58;;;;;;;17.20;62.99;101521.97;4934930;28;123806;-81
2022/09/12 06:31:40;;;;;;;54.50;28.35;;;;;;;17.25;62.84;101519.00;4957932;28;113981;-81
2022/09/12 06:34:10;;;;;;;56.97;29.73;;;;;;;17.27;62.89;101520.66;4958814;28;114676;-81
2022/09/12 06:36:43;;;;;;;56.53;28.67;;;;;;;17.33;63.05;101519.41;4954726;28;124708;-80
2022/09/12 06:39:18;;;;;;;55.95;28.88;;;;;;;17.37;63.01;101520.94;4965412;28;124852;-80
2022/09/12 06:41:47;;;;;;;52.58;28.00;;;;;;;17.41;62.98;101516.25;4954213;28;114473;-81
2022/09/12 06:44:16;;;;;;;51.92;28.08;;;;;;;17.44;62.97;101516.91;4956105;28;113314;-80
2022/09/12 06:46:44;;;;;;;54.10;28.35;;;;;;;17.47;62.87;101516.69;4958335;28;124122;-80
2022/09/12 06:49:11;;;;;;;52.28;28.65;;;;;;;17.51;62.79;101506.66;4954448;28;124125;-80
2022/09/12 06:51:40;;;;;;;54.03;29.17;;;;;;;17.54;62.79;101511.84;4956670;28;114458;-80
2022/09/12 06:54:10;;;;;;;53.38;28.27;;;;;;;17.55;62.69;101502.81;4956795;28;114534;-80
2022/09/12 06:56:38;;;;;;;53.60;28.15;;;;;;;17.57;62.81;101508.09;4952738;28;122862;-81
2022/09/12 06:59:05;;;;;;;56.13;27.90;;;;;;;17.58;62.83;101513.34;4956558;28;124072;-81
2022/09/12 07:01:32;;;;;;;59.65;30.08;;;;;;;17.60;62.86;101511.44;4943434;28;113045;-78
2022/09/12 07:04:01;;;;;;;51.42;29.38;;;;;;;17.63;62.84;101510.38;4951465;28;114247;-80
2022/09/12 07:06:34;;;;;;;48.08;28.25;;;;;;;17.66;62.87;101505.66;4951914;28;124717;-80
2022/09/12 07:09:03;;;;;;;54.55;29.20;;;;;;;17.68;62.77;101514.47;4950189;28;123576;-80
2022/09/12 07:11:36;;;;;;;50.05;28.50;;;;;;;17.74;62.99;101512.34;4961573;28;115298;-80
2022/09/12 07:14:06;;;;;;;54.00;30.27;;;;;;;17.82;63.04;101505.56;4940549;28;112868;-80
2022/09/12 07:16:36;;;;;;;51.58;31.02;;;;;;;17.95;63.16;101505.66;4941839;28;123548;-79
2022/09/12 07:19:05;;;;;;;54.10;31.23;;;;;;;18.08;63.47;101514.59;4948813;28;124352;-79
2022/09/12 07:21:35;;;;;;;56.80;31.35;;;;;;;18.23;63.28;101506.47;4949068;28;113976;-80
2022/09/12 07:24:02;;;;;;;55.55;31.98;;;;;;;18.38;63.18;101513.50;4935481;28;114443;-80
2022/09/12 07:26:29;;;;;;;57.25;31.92;;;;;;;18.51;63.19;101507.31;4949576;28;123859;-80
2022/09/12 07:28:58;;;;;;;53.88;32.22;;;;;;;18.64;62.97;101497.47;4949917;28;123185;-80
2022/09/12 07:31:45;;;;;;;49.92;31.42;;;;;;;18.76;62.98;101502.00;4932930;28;114472;-80
2022/09/12 07:34:12;;;;;;;52.00;32.47;;;;;;;18.88;63.01;101496.78;4961482;28;113197;-80
2022/09/12 07:36:39;;;;;;;48.00;29.90;;;;;;;19.03;62.84;101493.00;4936473;28;123758;-79
2022/09/12 07:39:06;;;;;;;51.00;30.50;;;;;;;19.15;62.66;101492.13;4949535;28;123633;-80
2022/09/12 07:41:33;;;;;;;49.60;30.52;;;;;;;19.24;62.07;101494.16;4949711;28;112473;-80
2022/09/12 07:44:02;;;;;;;48.35;30.23;;;;;;;19.33;62.39;101495.34;4949980;28;114480;-80
2022/09/12 07:46:30;;;;;;;48.13;29.70;;;;;;;19.43;62.28;101501.75;4929809;28;123113;-79
2022/09/12 07:48:59;;;;;;;45.85;29.52;;;;;;;19.55;62.40;101497.34;4944458;28;123906;-80
2022/09/12 07:51:28;;;;;;;45.17;29.25;;;;;;;19.69;62.02;101495.47;4932366;28;113212;-80
2022/09/12 07:53:55;;;;;;;48.67;29.55;;;;;;;19.81;62.13;101499.97;4950007;28;114136;-80
2022/09/12 07:56:26;;;;;;;46.47;28.92;;;;;;;19.96;62.21;101496.16;4951361;28;125347;-80
2022/09/12 07:58:58;;;;;;;43.03;27.88;;;;;;;20.12;61.88;101505.78;4947930;28;123945;-79
2022/09/12 08:01:25;;;;;;;42.60;26.83;;;;;;;20.27;61.74;101501.94;4951523;28;112053;-79
2022/09/12 08:03:56;;;;;;;40.70;26.67;;;;;;;20.40;61.52;101491.94;4955232;28;113460;-78
2022/09/12 08:06:24;;;;;;;39.90;26.52;;;;;;;20.58;61.29;101504.97;4954536;28;123813;-79
2022/09/12 08:08:54;;;;;;;40.03;26.02;;;;;;;20.72;61.38;101507.50;4938964;28;123311;-80
2022/09/12 08:11:22;;;;;;;40.28;26.73;;;;;;;20.89;61.35;101497.22;4952606;28;112768;-79
2022/09/12 08:13:51;;;;;;;35.00;24.60;;;;;;;21.05;61.08;101504.97;4941227;28;114479;-78
2022/09/12 08:16:24;;;;;;;39.40;25.45;;;;;;;21.18;60.86;101495.78;4955226;28;124181;-79
2022/09/12 08:18:51;;;;;;;37.50;25.02;;;;;;;21.34;60.75;101497.25;4952815;28;123018;-78
2022/09/12 08:21:20;;;;;;;34.97;24.63;;;;;;;21.46;60.42;101504.41;4936968;28;113794;-78
2022/09/12 08:23:52;;;;;;;35.50;23.25;;;;;;;21.62;60.33;101511.22;4952846;28;113327;-78
2022/09/12 08:26:19;;;;;;;37.47;21.95;;;;;;;21.74;59.94;101502.16;4953457;28;122880;-78
2022/09/12 08:28:46;;;;;;;32.22;22.40;;;;;;;21.89;59.92;101503.59;4934702;28;123335;-78
2022/09/12 08:31:16;;;;;;;33.80;22.33;;;;;;;22.03;59.50;101509.69;4951259;28;114912;-78
2022/09/12 08:33:44;;;;;;;34.97;22.38;;;;;;;22.15;59.23;101506.81;4940784;28;113931;-78
2022/09/12 08:36:22;;;;;;;29.10;21.90;;;;;;;22.28;59.08;101512.06;4955323;28;123500;-78
2022/09/12 08:38:56;;;;;;;32.20;22.67;;;;;;;22.41;58.79;101513.72;4954273;28;124163;-78
2022/09/12 08:41:33;;;;;;;33.10;21.58;;;;;;;22.50;58.58;101502.16;4954940;28;114346;-78
2022/09/12 08:44:36;;;;;;;29.73;21.63;;;;;;;22.59;58.27;101506.75;4956940;28;114627;-78
2022/09/12 08:47:20;;;;;;;28.63;20.30;;;;;;;22.69;58.14;101504.97;4939490;28;123124;-78
2022/09/12 08:50:03;;;;;;;26.40;19.90;;;;;;;22.79;57.94;101501.47;4957545;28;122776;-78
2022/09/12 08:53:01;;;;;;;25.77;19.60;;;;;;;22.90;57.83;101509.50;4952597;28;113522;-78
2022/09/12 08:55:35;;;;;;;25.52;19.02;;;;;;;23.00;57.37;101507.75;4943820;28;113730;-78
2022/09/12 08:58:19;;;;;;;25.38;17.98;;;;;;;23.09;57.37;101508.78;4952728;28;124170;-78
2022/09/12 09:01:14;;;;;;;23.80;18.00;;;;;;;23.18;57.03;101507.13;4953343;28;123462;-78
2022/09/12 09:04:02;;;;;;;25.20;17.98;;;;;;;23.29;56.85;101507.88;4953766;28;113846;-79
2022/09/12 09:06:55;;;;;;;23.40;17.27;;;;;;;23.40;56.72;101506.94;4942108;28;113936;-78
2022/09/12 09:09:41;;;;;;;23.75;17.48;;;;;;;23.50;56.61;101502.41;4952709;28;124910;-79
2022/09/12 09:12:21;;;;;;;26.50;18.00;;;;;;;23.62;56.25;101494.19;4951662;28;124175;-78
2022/09/12 09:15:08;;;;;;;24.27;17.75;;;;;;;23.74;56.43;101490.38;4939793;28;113925;-78
2022/09/12 09:17:41;;;;;;;24.80;17.92;;;;;;;23.89;56.23;101486.31;4953031;28;113723;-78
2022/09/12 09:20:28;;;;;;;24.00;17.35;;;;;;;24.02;56.22;101490.63;4951654;28;123845;-78
2022/09/12 09:23:24;;;;;;;25.67;17.35;;;;;;;24.15;55.57;101491.19;4950454;28;124862;-78
2022/09/12 09:26:13;;;;;;;22.20;16.88;;;;;;;24.27;55.47;101490.03;4952917;28;114543;-78
2022/09/12 09:28:51;;;;;;;22.13;17.02;;;;;;;24.41;55.20;101487.88;4941973;28;113687;-78
2022/09/12 09:31:23;;;;;;;25.67;17.02;;;;;;;24.53;54.82;101484.06;4951672;28;123960;-78
2022/09/12 09:33:55;;;;;;;22.45;17.65;;;;;;;24.63;54.64;101487.59;4951799;28;123676;-78
2022/09/12 09:36:48;;;;;;;21.35;16.17;;;;;;;24.75;54.54;101477.47;4950599;28;115377;-77
2022/09/12 09:39:47;;;;;;;19.35;14.75;;;;;;;24.86;54.01;101473.72;4973077;28;114804;-78
2022/09/12 09:42:44;;;;;;;22.63;16.05;;;;;;;24.94;53.89;101473.84;4963053;28;123644;-79
2022/09/12 09:45:15;;;;;;;18.60;13.95;;;;;;;25.04;53.21;101466.53;4939344;28;123862;-77
2022/09/12 09:47:53;;;;;;;18.60;13.55;;;;;;;25.13;53.09;101469.34;4952432;28;114096;-77
2022/09/12 09:50:20;;;;;;;20.33;14.23;;;;;;;25.20;52.99;101465.91;4952044;28;113662;-78
2022/09/12 09:52:49;;;;;;;18.27;13.48;;;;;;;25.29;52.66;101466.88;4951151;28;124040;-77
2022/09/12 09:55:24;;;;;;;16.58;12.82;;;;;;;25.37;52.08;101464.28;4951233;28;122810;-77
2022/09/12 09:57:52;;;;;;;14.93;12.25;;;;;;;25.45;52.14;101461.66;4958822;28;112381;-78
2022/09/12 10:00:32;;;;;;;17.25;13.15;;;;;;;25.56;52.07;101454.31;4944320;28;112970;-79
2022/09/12 10:03:03;;;;;;;17.63;12.32;;;;;;;25.61;51.27;101447.41;4953336;28;122978;-78
2022/09/12 10:05:34;;;;;;;13.85;11.07;;;;;;;25.67;51.09;101448.66;4955908;28;122772;-79
2022/09/12 10:08:03;;;;;;;13.07;10.80;;;;;;;25.74;51.01;101436.19;4955613;28;113647;-79
2022/09/12 10:10:30;;;;;;;15.00;10.73;;;;;;;25.82;50.88;101444.44;4958126;28;112713;-79
2022/09/12 10:13:33;;;;;;;13.77;9.98;;;;;;;25.92;50.91;101448.94;4953903;28;123786;-79
2022/09/12 10:16:04;;;;;;;12.65;9.38;;;;;;;26.00;50.98;101436.31;4936615;28;124402;-79
2022/09/12 10:18:37;;;;;;;13.65;10.65;;;;;;;26.10;50.13;101428.06;4949588;28;113574;-79
2022/09/12 10:21:30;;;;;;;13.73;9.48;;;;;;;26.18;50.42;101433.59;4934421;28;113750;-78
2022/09/12 10:24:24;;;;;;;12.05;9.65;;;;;;;26.27;50.26;101428.22;4929783;28;122350;-78
2022/09/12 10:26:55;;;;;;;13.80;10.07;;;;;;;26.31;49.92;101422.31;4949392;28;123011;-78
2022/09/12 10:29:30;;;;;;;11.02;8.95;;;;;;;26.39;49.45;101424.22;4954031;28;114796;-78
2022/09/12 10:32:00;;;;;;;;;;;;;;;26.42;50.53;101423.91;4949313;28;115014;-78
2022/09/12 10:34:35;;;;;;;10.88;8.48;;;;;;;26.51;49.58;101420.25;4955687;28;124355;-78
2022/09/12 10:37:08;;;;;;;10.82;9.27;;;;;;;26.59;49.65;101420.31;4954867;28;123102;-79
2022/09/12 10:39:37;;;;;;;10.93;9.05;;;;;;;26.65;48.99;101415.25;4948026;28;113064;-78
2022/09/12 10:42:04;;;;;;;9.75;7.68;;;;;;;26.72;48.33;101408.19;4951991;28;113195;-81
2022/09/12 10:44:34;;;;;;;11.20;8.13;;;;;;;26.77;48.07;101400.41;4953483;28;123910;-80
2022/09/12 10:47:29;;;;;;;9.80;7.45;;;;;;;26.85;48.25;101396.88;4953798;28;123914;-78
2022/09/12 10:50:26;;;;;;;9.80;7.32;;;;;;;26.93;48.04;101405.91;4938335;28;113427;-79
2022/09/12 10:53:12;;;;;;;8.30;7.20;;;;;;;27.00;47.93;101401.50;4951765;28;115057;-78
2022/09/12 10:55:46;;;;;;;9.27;7.72;;;;;;;27.10;47.36;101395.09;4946888;28;123631;-78
2022/09/12 10:58:47;;;;;;;10.75;8.48;;;;;;;27.18;47.55;101387.84;4950908;28;123067;-79
2022/09/12 11:01:43;;;;;;;11.45;8.02;;;;;;;27.23;46.72;101390.03;4935920;28;114005;-78
2022/09/12 11:04:37;;;;;;;10.70;7.75;;;;;;;27.28;47.29;101381.44;4952803;28;113822;-78
2022/09/12 11:07:23;;;;;;;8.35;7.32;;;;;;;27.34;47.18;101387.06;4949078;28;122353;-78
2022/09/12 11:10:22;;;;;;;10.48;7.85;;;;;;;27.37;46.08;101381.28;4952520;28;123879;-78
2022/09/12 11:13:13;;;;;;;11.00;8.50;;;;;;;27.31;45.62;101371.09;4950560;28;114773;-78
2022/09/12 11:15:55;;;;;;;9.82;7.30;;;;;;;27.28;45.33;101365.97;4953582;28;114185;-79
2022/09/12 11:18:52;;;;;;;9.55;7.93;;;;;;;27.28;45.88;101357.81;4953803;28;123931;-78
2022/09/12 11:21:38;;;;;;;9.13;7.20;;;;;;;27.33;46.02;101358.16;4969493;28;129094;-78
2022/09/12 11:24:45;;;;;;;10.70;7.53;;;;;;;27.40;45.69;101362.94;4931038;28;115075;-78
2022/09/12 11:27:43;;;;;;;9.05;7.07;;;;;;;27.43;45.05;101357.16;4926580;28;114176;-78
2022/09/12 11:30:13;;;;;;;10.55;7.20;;;;;;;27.46;45.13;101352.22;4947776;28;123911;-78
2022/09/12 11:33:18;;;;;;;9.07;7.20;;;;;;;27.51;45.70;101351.72;4951965;28;123160;-78
2022/09/12 11:35:51;;;;;;;8.82;6.00;;;;;;;27.57;44.05;101353.75;4950283;28;114192;-79
2022/09/12 11:38:40;;;;;;;9.50;6.85;;;;;;;27.55;43.78;101356.66;4942559;28;113050;-81